Time;durP1;ratioP1;P1;durP2;ratioP2;P2;SDS_P1;SDS_P2;PMS_P1;PMS_P2;Temp;Humidity;BMP_temperature;BMP_pressure;BME280_temperature;BME280_humidity;BME280_pressure;Samples;Min_cycle;Max_cycle;Signal;HPM_P1;HPM_P2
2022/08/30 00:02:43;;;;;;;10.23;4.25;;;19.70;99.90;;;;;;5034328;28;20215;-88
2022/08/30 00:05:10;;;;;;;8.50;3.22;;;19.40;99.90;;;;;;5033243;28;20171;-88
2022/08/30 00:07:36;;;;;;;13.23;3.38;;;19.40;99.90;;;;;;5033004;28;20167;-89
2022/08/30 00:10:03;;;;;;;17.35;2.88;;;19.60;99.90;;;;;;5034279;28;20160;-88
2022/08/30 00:12:30;;;;;;;8.75;3.97;;;19.70;99.90;;;;;;5033439;28;20230;-88
2022/08/30 00:14:57;;;;;;;4.78;2.90;;;19.60;99.90;;;;;;5033235;28;20247;-88
2022/08/30 00:17:22;;;;;;;5.50;3.20;;;19.60;99.90;;;;;;5033220;28;20536;-88
2022/08/30 00:19:48;;;;;;;9.88;2.95;;;19.70;99.90;;;;;;5033062;28;20203;-89
2022/08/30 00:22:13;;;;;;;7.20;3.38;;;19.70;99.90;;;;;;5034179;28;20186;-89
2022/08/30 00:24:39;;;;;;;10.07;3.03;;;19.80;99.90;;;;;;5033044;28;20168;-89
2022/08/30 00:27:05;;;;;;;5.63;3.40;;;19.80;99.90;;;;;;5032938;28;20168;-88
2022/08/30 00:29:30;;;;;;;8.52;3.70;;;19.90;99.90;;;;;;5033048;28;20625;-88
2022/08/30 00:31:56;;;;;;;7.15;3.88;;;19.90;99.90;;;;;;5032895;28;20282;-89
2022/08/30 00:34:21;;;;;;;10.45;3.70;;;19.80;99.90;;;;;;5032750;28;20168;-88
2022/08/30 00:36:47;;;;;;;13.65;4.43;;;19.60;99.90;;;;;;5033122;28;20180;-89
2022/08/30 00:39:12;;;;;;;10.00;4.15;;;19.30;99.90;;;;;;5033133;28;20206;-89
2022/08/30 00:41:39;;;;;;;11.43;4.70;;;19.10;99.90;;;;;;5033022;28;20729;-89
2022/08/30 00:44:05;;;;;;;7.70;4.00;;;19.20;99.90;;;;;;5034021;28;20574;-88
2022/08/30 00:46:31;;;;;;;14.60;4.35;;;19.30;99.90;;;;;;5033217;28;20172;-89
2022/08/30 00:49:07;;;;;;;8.82;4.38;;;19.20;99.90;;;;;;5033944;28;20643;-88
2022/08/30 00:51:33;;;;;;;12.80;4.75;;;19.30;99.90;;;;;;5046711;28;20175;-89
2022/08/30 00:54:00;;;;;;;12.68;3.83;;;19.40;99.90;;;;;;5038928;28;20166;-89
2022/08/30 00:56:28;;;;;;;8.82;3.47;;;19.50;99.90;;;;;;5042189;28;20160;-88
2022/08/30 00:58:57;;;;;;;9.95;4.40;;;19.50;99.90;;;;;;5035735;28;20197;-89
2022/08/30 01:01:24;;;;;;;11.10;4.25;;;19.60;99.90;;;;;;5036149;28;20171;-88
2022/08/30 01:03:50;;;;;;;7.20;4.00;;;19.60;99.90;;;;;;5047651;28;20191;-89
2022/08/30 01:06:16;;;;;;;8.23;3.88;;;19.50;99.90;;;;;;5039979;28;20172;-88
2022/08/30 01:08:44;;;;;;;7.63;3.53;;;19.50;99.90;;;;;;5037913;28;20631;-88
2022/08/30 01:11:13;;;;;;;9.07;4.65;;;19.30;99.90;;;;;;5039636;28;20262;-89
2022/08/30 01:13:39;;;;;;;8.23;4.63;;;19.40;99.90;;;;;;5036663;28;20164;-88
2022/08/30 01:16:05;;;;;;;6.55;3.72;;;19.20;99.90;;;;;;5032631;28;20259;-88
2022/08/30 01:18:31;;;;;;;4.55;4.15;;;19.10;99.90;;;;;;5032514;28;20202;-89
2022/08/30 01:21:15;;;;;;;10.88;3.88;;;19.10;99.90;;;;;;5032601;28;20169;-88
2022/08/30 01:23:43;;;;;;;12.65;4.15;;;19.20;99.90;;;;;;5032164;28;20180;-88
2022/08/30 01:26:09;;;;;;;10.02;4.30;;;19.20;99.90;;;;;;5032258;28;20168;-88
2022/08/30 01:28:39;;;;;;;10.07;4.63;;;19.10;99.90;;;;;;5032626;28;20192;-88
2022/08/30 01:31:04;;;;;;;14.00;4.00;;;19.20;99.90;;;;;;5032432;28;20164;-88
2022/08/30 01:33:30;;;;;;;7.90;3.90;;;19.20;99.90;;;;;;5032413;28;20214;-88
2022/08/30 01:36:03;;;;;;;10.63;4.35;;;19.20;99.90;;;;;;5032590;28;20165;-88
2022/08/30 01:38:42;;;;;;;6.50;4.03;;;19.30;99.90;;;;;;5035904;28;20206;-88
2022/08/30 01:41:35;;;;;;;9.75;4.20;;;19.50;99.90;;;;;;5039583;28;20171;-88
2022/08/30 01:44:08;;;;;;;14.27;5.03;;;19.30;99.90;;;;;;5033347;28;20207;-88
2022/08/30 01:46:37;;;;;;;10.45;3.83;;;19.20;99.90;;;;;;5037417;28;20539;-89
2022/08/30 01:49:07;;;;;;;7.53;4.43;;;19.20;99.90;;;;;;5036959;28;20210;-88
2022/08/30 01:51:33;;;;;;;8.73;4.10;;;19.30;99.90;;;;;;5037069;28;20192;-88
2022/08/30 01:53:59;;;;;;;7.32;4.10;;;19.30;99.90;;;;;;5037543;28;20163;-88
2022/08/30 01:56:26;;;;;;;6.20;3.97;;;19.20;99.90;;;;;;5036087;28;20191;-87
2022/08/30 01:58:53;;;;;;;9.45;4.07;;;19.20;99.90;;;;;;5035843;28;20289;-89
2022/08/30 02:01:22;;;;;;;13.82;4.50;;;19.20;99.90;;;;;;5035297;28;20245;-88
2022/08/30 02:03:47;;;;;;;9.27;4.80;;;19.00;99.90;;;;;;5036015;28;20184;-88
2022/08/30 02:06:16;;;;;;;10.63;4.18;;;18.90;99.90;;;;;;5035602;28;20682;-88
2022/08/30 02:08:42;;;;;;;17.20;5.65;;;19.10;99.90;;;;;;5035391;28;20199;-88
2022/08/30 02:11:09;;;;;;;10.80;5.07;;;18.90;99.90;;;;;;5035580;28;20167;-88
2022/08/30 02:13:38;;;;;;;7.97;4.63;;;19.00;99.90;;;;;;5035211;28;20204;-88
2022/08/30 02:16:06;;;;;;;8.23;4.43;;;19.10;99.90;;;;;;5035301;28;20164;-88
2022/08/30 02:18:33;;;;;;;9.00;3.60;;;19.00;99.90;;;;;;5034948;28;20212;-88
2022/08/30 02:20:59;;;;;;;8.63;4.88;;;19.00;99.90;;;;;;5035101;28;20528;-88
2022/08/30 02:23:25;;;;;;;15.00;5.45;;;18.80;99.90;;;;;;5035314;28;20667;-88
2022/08/30 02:25:51;;;;;;;10.88;4.90;;;18.70;99.90;;;;;;5035268;28;20230;-88
2022/08/30 02:28:18;;;;;;;6.53;4.82;;;18.80;99.90;;;;;;5035225;28;20635;-88
2022/08/30 02:30:45;;;;;;;10.30;5.32;;;18.70;99.90;;;;;;5035290;28;20501;-88
2022/08/30 02:33:11;;;;;;;16.77;4.97;;;18.80;99.90;;;;;;5035174;28;20261;-87
2022/08/30 02:35:36;;;;;;;10.48;5.30;;;18.80;99.90;;;;;;5035415;28;20647;-88
2022/08/30 02:38:03;;;;;;;5.70;4.22;;;18.50;99.90;;;;;;5036135;28;20214;-87
2022/08/30 02:40:28;;;;;;;6.60;4.82;;;18.30;99.90;;;;;;5035411;28;20219;-89
2022/08/30 02:42:54;;;;;;;9.77;4.95;;;18.30;99.90;;;;;;5050793;28;20207;-88
2022/08/30 02:45:20;;;;;;;12.77;5.05;;;18.40;99.90;;;;;;5053862;28;20168;-88
2022/08/30 02:47:45;;;;;;;12.88;6.05;;;18.20;99.90;;;;;;5053887;28;20180;-88
2022/08/30 02:50:11;;;;;;;8.13;5.28;;;18.20;99.90;;;;;;5052322;28;20172;-88
2022/08/30 02:52:37;;;;;;;6.32;4.75;;;18.10;99.90;;;;;;5054415;28;20260;-89
2022/08/30 02:55:05;;;;;;;8.48;5.72;;;18.20;99.90;;;;;;5053517;28;20182;-88
2022/08/30 02:57:30;;;;;;;6.95;5.28;;;18.30;99.90;;;;;;5045861;28;20187;-88
2022/08/30 02:59:56;;;;;;;14.32;5.55;;;18.60;99.90;;;;;;5034991;28;20204;-87
2022/08/30 03:02:22;;;;;;;9.85;5.25;;;18.50;99.90;;;;;;5034959;28;20199;-89
2022/08/30 03:04:48;;;;;;;8.00;5.38;;;18.50;99.90;;;;;;5037069;28;20172;-88
2022/08/30 03:07:15;;;;;;;14.10;5.55;;;18.30;99.90;;;;;;5034822;28;20171;-89
2022/08/30 03:09:41;;;;;;;12.55;5.75;;;18.30;99.90;;;;;;5034498;28;20267;-88
2022/08/30 03:12:07;;;;;;;18.75;5.90;;;18.50;99.90;;;;;;5034698;28;20211;-88
2022/08/30 03:14:35;;;;;;;8.13;5.60;;;18.40;99.90;;;;;;5036134;28;20521;-87
2022/08/30 03:17:02;;;;;;;20.17;5.75;;;18.40;99.90;;;;;;5037329;28;20167;-88
2022/08/30 03:19:28;;;;;;;6.50;4.97;;;18.40;99.90;;;;;;5039157;28;20544;-88
2022/08/30 03:21:54;;;;;;;15.88;6.03;;;18.20;99.90;;;;;;5036309;28;20184;-88
2022/08/30 03:24:20;;;;;;;8.25;5.60;;;18.30;99.90;;;;;;5034384;28;20179;-88
2022/08/30 03:26:45;;;;;;;8.82;6.03;;;18.40;99.90;;;;;;5036359;28;20191;-88
2022/08/30 03:29:11;;;;;;;8.77;5.68;;;18.20;99.90;;;;;;5035096;28;20269;-88
2022/08/30 03:31:41;;;;;;;7.07;5.45;;;18.10;99.90;;;;;;5036551;28;20195;-88
2022/08/30 03:34:09;;;;;;;9.20;5.00;;;18.30;99.90;;;;;;5034166;28;20212;-88
2022/08/30 03:36:36;;;;;;;11.07;5.85;;;18.10;99.90;;;;;;5033648;28;20266;-88
2022/08/30 03:39:03;;;;;;;16.30;5.68;;;18.30;99.90;;;;;;5033737;28;20214;-89
2022/08/30 03:41:29;;;;;;;14.23;5.43;;;18.30;99.90;;;;;;5033542;28;20179;-88
2022/08/30 03:43:54;;;;;;;14.65;5.88;;;18.40;99.90;;;;;;5033811;28;20271;-88
2022/08/30 03:46:20;;;;;;;10.27;5.60;;;18.60;99.90;;;;;;5033691;28;20168;-88
2022/08/30 03:48:45;;;;;;;11.10;5.63;;;18.60;99.90;;;;;;5033434;28;20659;-88
2022/08/30 03:51:11;;;;;;;15.15;5.97;;;18.40;99.90;;;;;;5033494;28;20160;-88
2022/08/30 03:53:37;;;;;;;19.45;5.88;;;18.50;99.90;;;;;;5033447;28;20230;-88
2022/08/30 03:56:03;;;;;;;15.63;5.80;;;18.50;99.90;;;;;;5033379;28;20706;-89
2022/08/30 03:58:28;;;;;;;17.60;5.95;;;18.30;99.90;;;;;;5033410;28;20199;-89
2022/08/30 04:00:54;;;;;;;12.50;6.03;;;18.40;99.90;;;;;;5033530;28;20627;-89
2022/08/30 04:03:24;;;;;;;9.98;6.10;;;18.50;99.90;;;;;;5033898;28;20203;-88
2022/08/30 04:05:54;;;;;;;10.68;5.35;;;18.40;99.90;;;;;;5033500;28;20172;-88
2022/08/30 04:08:20;;;;;;;10.27;5.32;;;18.40;99.90;;;;;;5032707;28;20210;-88
2022/08/30 04:10:46;;;;;;;7.80;5.78;;;18.30;99.90;;;;;;5033653;28;20207;-88
2022/08/30 04:13:13;;;;;;;12.15;5.97;;;18.10;99.90;;;;;;5034186;28;20250;-88
2022/08/30 04:15:39;;;;;;;8.50;6.10;;;18.30;99.90;;;;;;5035177;28;20176;-87
2022/08/30 04:18:04;;;;;;;16.65;6.20;;;18.40;99.90;;;;;;5036443;28;20172;-88
2022/08/30 04:20:31;;;;;;;9.48;5.82;;;18.30;99.90;;;;;;5034031;28;20207;-88
2022/08/30 04:22:56;;;;;;;14.07;5.72;;;18.10;99.90;;;;;;5033071;28;20190;-88
2022/08/30 04:25:22;;;;;;;14.27;6.00;;;18.10;99.90;;;;;;5033151;28;20172;-88
2022/08/30 04:27:48;;;;;;;10.20;4.80;;;18.10;99.90;;;;;;5033235;28;20179;-88
2022/08/30 04:30:15;;;;;;;15.02;7.05;;;18.00;99.90;;;;;;5033476;28;20191;-88
2022/08/30 04:32:42;;;;;;;22.27;6.82;;;17.90;99.90;;;;;;5033146;28;20222;-87
2022/08/30 04:35:08;;;;;;;12.70;5.68;;;18.10;99.90;;;;;;5033210;28;20169;-88
2022/08/30 04:37:35;;;;;;;8.52;5.45;;;18.10;99.90;;;;;;5033068;28;20169;-87
2022/08/30 04:40:02;;;;;;;9.55;5.32;;;18.00;99.90;;;;;;5032620;28;20742;-87
2022/08/30 04:42:30;;;;;;;8.18;6.28;;;18.20;99.90;;;;;;5032611;28;20192;-88
2022/08/30 04:44:56;;;;;;;7.70;6.22;;;18.30;99.90;;;;;;5032366;28;20652;-87
2022/08/30 04:47:22;;;;;;;21.45;6.65;;;18.30;99.90;;;;;;5032909;28;20251;-87
2022/08/30 04:49:47;;;;;;;8.95;5.78;;;18.40;99.90;;;;;;5032761;28;20203;-88
2022/08/30 04:52:13;;;;;;;9.27;5.47;;;18.30;99.90;;;;;;5033105;28;20195;-87
2022/08/30 04:54:39;;;;;;;10.48;6.00;;;18.20;99.90;;;;;;5033000;28;20168;-87
2022/08/30 04:57:06;;;;;;;12.48;5.82;;;18.10;99.90;;;;;;5032935;28;20191;-88
2022/08/30 04:59:32;;;;;;;9.27;5.47;;;18.10;99.90;;;;;;5033233;28;20203;-86
2022/08/30 05:01:58;;;;;;;19.23;6.05;;;18.20;99.90;;;;;;5032495;28;20265;-86
2022/08/30 05:04:23;;;;;;;7.85;5.97;;;18.10;99.90;;;;;;5033219;28;20171;-88
2022/08/30 05:06:49;;;;;;;7.85;5.85;;;17.90;99.90;;;;;;5032894;28;20160;-88
2022/08/30 05:09:15;;;;;;;12.60;7.05;;;18.00;99.90;;;;;;5033442;28;20187;-87
2022/08/30 05:11:42;;;;;;;12.85;5.70;;;17.90;99.90;;;;;;5033492;28;20184;-87
2022/08/30 05:14:08;;;;;;;8.23;5.90;;;18.10;99.90;;;;;;5033000;28;20262;-88
2022/08/30 05:16:34;;;;;;;13.40;6.35;;;18.20;99.90;;;;;;5032851;28;20599;-87
2022/08/30 05:19:00;;;;;;;13.43;6.22;;;18.10;99.90;;;;;;5034178;28;20200;-87
2022/08/30 05:21:27;;;;;;;11.32;6.18;;;18.00;99.90;;;;;;5036826;28;20167;-87
2022/08/30 05:23:58;;;;;;;10.75;6.22;;;18.00;99.90;;;;;;5036955;28;20269;-87
2022/08/30 05:26:29;;;;;;;10.88;6.35;;;17.80;99.90;;;;;;5037167;28;20164;-87
2022/08/30 05:28:56;;;;;;;15.30;6.38;;;17.80;99.90;;;;;;5036506;28;20625;-87
2022/08/30 05:31:34;;;;;;;11.40;7.05;;;17.80;99.90;;;;;;5036575;28;20183;-87
2022/08/30 05:34:00;;;;;;;12.68;6.15;;;17.70;99.90;;;;;;5037391;28;20196;-86
2022/08/30 05:36:28;;;;;;;10.68;6.40;;;17.50;99.90;;;;;;5038367;28;20194;-84
2022/08/30 05:38:55;;;;;;;12.88;6.05;;;17.60;99.90;;;;;;5035088;28;20270;-84
2022/08/30 05:41:22;;;;;;;14.63;6.35;;;17.90;99.90;;;;;;5035332;28;20179;-85
2022/08/30 05:43:50;;;;;;;12.32;6.18;;;18.20;99.90;;;;;;5035259;28;20168;-85
2022/08/30 05:46:18;;;;;;;16.38;6.88;;;18.10;99.90;;;;;;5035333;28;20218;-84
2022/08/30 05:48:44;;;;;;;15.48;6.13;;;18.10;99.90;;;;;;5035634;28;20167;-84
2022/08/30 05:51:20;;;;;;;10.95;6.78;;;18.20;99.90;;;;;;5036236;28;20172;-86
2022/08/30 05:53:46;;;;;;;13.23;5.78;;;18.20;99.90;;;;;;5034467;28;20608;-84
2022/08/30 05:56:15;;;;;;;15.07;6.40;;;18.40;99.90;;;;;;5034321;28;20168;-84
2022/08/30 05:58:41;;;;;;;13.38;6.78;;;18.50;99.90;;;;;;5034758;28;20204;-85
2022/08/30 06:01:18;;;;;;;19.65;7.18;;;18.60;99.90;;;;;;5035793;28;20533;-85
2022/08/30 06:03:43;;;;;;;12.93;6.75;;;18.60;99.90;;;;;;5034487;28;20191;-84
2022/08/30 06:06:09;;;;;;;15.10;7.15;;;18.50;99.90;;;;;;5035204;28;20168;-85
2022/08/30 06:08:34;;;;;;;14.45;6.55;;;18.50;99.90;;;;;;5035769;28;20265;-85
2022/08/30 06:11:00;;;;;;;31.48;6.93;;;18.50;99.90;;;;;;5034127;28;20179;-85
2022/08/30 06:13:25;;;;;;;13.25;7.82;;;18.50;99.90;;;;;;5034379;28;20195;-85
2022/08/30 06:15:51;;;;;;;20.33;6.28;;;18.50;99.90;;;;;;5034181;28;20179;-85
2022/08/30 06:18:17;;;;;;;17.83;7.38;;;18.70;99.90;;;;;;5034080;28;20247;-86
2022/08/30 06:20:46;;;;;;;15.13;6.85;;;18.70;99.90;;;;;;5033759;28;20203;-85
2022/08/30 06:23:12;;;;;;;20.60;6.72;;;18.80;99.90;;;;;;5034117;28;20188;-85
2022/08/30 06:25:38;;;;;;;17.92;6.82;;;18.90;99.90;;;;;;5033911;28;20270;-84
2022/08/30 06:28:05;;;;;;;11.18;5.93;;;18.80;99.90;;;;;;5034946;28;20172;-87
2022/08/30 06:30:32;;;;;;;15.95;8.10;;;18.80;99.90;;;;;;5033599;28;20179;-87
2022/08/30 06:32:57;;;;;;;14.57;6.93;;;18.70;99.90;;;;;;5035052;28;20529;-88
2022/08/30 06:35:24;;;;;;;9.00;6.18;;;18.50;99.90;;;;;;5035540;28;20164;-90
2022/08/30 06:37:50;;;;;;;12.70;6.60;;;18.50;99.90;;;;;;5036401;28;20183;-85
2022/08/30 06:40:17;;;;;;;14.88;6.63;;;18.70;99.90;;;;;;5036305;28;20200;-90
2022/08/30 06:42:42;;;;;;;10.20;5.85;;;19.00;99.90;;;;;;5035788;28;20187;-88
2022/08/30 06:45:09;;;;;;;9.73;6.15;;;19.10;99.90;;;;;;5036119;28;20532;-88
2022/08/30 06:47:34;;;;;;;13.18;6.60;;;19.10;99.90;;;;;;5035214;28;20168;-88
2022/08/30 06:50:00;;;;;;;18.88;6.80;;;19.20;99.90;;;;;;5035760;28;20176;-89
2022/08/30 06:52:26;;;;;;;24.67;6.90;;;19.40;99.90;;;;;;5035274;28;20192;-88
2022/08/30 06:54:53;;;;;;;13.43;6.72;;;19.40;99.90;;;;;;5034549;28;20258;-89
2022/08/30 06:57:19;;;;;;;17.67;7.15;;;19.40;99.90;;;;;;5036962;28;20214;-89
2022/08/30 06:59:44;;;;;;;11.52;7.30;;;19.80;99.90;;;;;;5034645;28;20208;-87
2022/08/30 07:02:10;;;;;;;13.45;6.20;;;19.70;99.90;;;;;;5034134;28;20196;-91
2022/08/30 07:04:37;;;;;;;12.07;6.80;;;19.80;99.90;;;;;;5035398;28;20179;-91
2022/08/30 07:07:03;;;;;;;7.00;6.30;;;19.70;99.90;;;;;;5035397;28;20175;-91
2022/08/30 07:09:29;;;;;;;17.27;6.15;;;19.90;99.90;;;;;;5035047;28;20633;-87
2022/08/30 07:11:54;;;;;;;23.67;6.60;;;20.00;99.90;;;;;;5035756;28;20529;-92
2022/08/30 07:14:20;;;;;;;22.27;6.68;;;20.20;99.90;;;;;;5036772;28;20691;-90
2022/08/30 07:16:46;;;;;;;10.00;7.80;;;20.50;99.90;;;;;;5037922;28;20198;-87
2022/08/30 07:19:12;;;;;;;12.88;5.43;;;20.40;99.90;;;;;;5033665;28;20671;-87
2022/08/30 07:21:42;;;;;;;8.30;6.25;;;20.30;99.90;;;;;;5033815;28;20196;-88
2022/08/30 07:24:09;;;;;;;11.88;6.60;;;20.20;99.90;;;;;;5034152;28;20579;-88
2022/08/30 07:26:38;;;;;;;16.75;7.60;;;20.20;99.90;;;;;;5035541;28;20171;-88
2022/08/30 07:29:04;;;;;;;7.95;6.65;;;20.40;99.90;;;;;;5034035;28;20214;-89
2022/08/30 07:31:31;;;;;;;9.35;6.15;;;20.60;99.90;;;;;;5033721;28;20206;-87
2022/08/30 07:33:57;;;;;;;10.00;7.13;;;20.60;99.90;;;;;;5033923;28;20193;-87
2022/08/30 07:36:23;;;;;;;17.88;5.95;;;20.30;99.90;;;;;;5034061;28;20167;-88
2022/08/30 07:38:50;;;;;;;10.38;6.32;;;20.40;99.90;;;;;;5033923;28;20320;-89
2022/08/30 07:41:20;;;;;;;8.07;5.95;;;20.30;99.90;;;;;;5034037;28;20651;-89
2022/08/30 07:43:46;;;;;;;17.73;6.68;;;20.30;99.90;;;;;;5030655;28;20172;-88
2022/08/30 07:46:13;;;;;;;14.23;6.15;;;20.30;99.90;;;;;;5028229;28;20654;-84
2022/08/30 07:48:39;;;;;;;20.30;6.38;;;20.30;99.90;;;;;;5022492;28;20196;-92
2022/08/30 07:51:09;;;;;;;6.03;5.53;;;20.40;99.90;;;;;;5013424;28;20179;-87
2022/08/30 07:53:34;;;;;;;10.73;6.22;;;20.60;99.90;;;;;;5019304;28;20649;-89
2022/08/30 07:56:00;;;;;;;15.93;6.13;;;20.80;99.90;;;;;;5034904;28;20184;-87
2022/08/30 07:58:26;;;;;;;7.38;5.53;;;21.00;99.90;;;;;;5050129;28;20691;-89
2022/08/30 08:00:52;;;;;;;8.43;5.50;;;21.10;99.90;;;;;;5049741;28;20164;-90
2022/08/30 08:03:18;;;;;;;18.60;5.82;;;21.00;99.90;;;;;;5048798;28;20218;-83
2022/08/30 08:05:44;;;;;;;21.95;6.05;;;20.90;99.90;;;;;;5033900;28;20799;-87
2022/08/30 08:08:11;;;;;;;7.65;5.97;;;21.10;99.90;;;;;;5014130;28;20167;-83
2022/08/30 08:10:39;;;;;;;15.00;6.20;;;21.10;99.90;;;;;;5031188;28;20255;-83
2022/08/30 08:13:05;;;;;;;13.85;5.38;;;21.30;99.90;;;;;;5027502;28;20653;-85
2022/08/30 08:15:31;;;;;;;27.90;6.63;;;21.30;99.90;;;;;;5012094;28;20183;-85
2022/08/30 08:17:57;;;;;;;49.03;7.20;;;21.10;99.90;;;;;;5025807;28;20195;-84
2022/08/30 08:20:24;;;;;;;7.38;5.60;;;21.00;99.90;;;;;;5033110;28;20710;-86
2022/08/30 08:22:50;;;;;;;6.60;5.50;;;21.20;99.90;;;;;;5014507;28;20738;-85
2022/08/30 08:25:16;;;;;;;18.80;5.70;;;21.30;99.90;;;;;;5033004;28;20164;-84
2022/08/30 08:27:42;;;;;;;26.85;5.03;;;21.40;99.90;;;;;;5021291;28;20176;-84
2022/08/30 08:30:08;;;;;;;17.60;5.30;;;21.50;99.90;;;;;;5012115;28;20179;-87
2022/08/30 08:32:34;;;;;;;7.85;4.57;;;21.60;99.90;;;;;;5012877;28;20188;-84
2022/08/30 08:34:59;;;;;;;8.88;4.82;;;21.70;99.90;;;;;;5013383;28;20177;-86
2022/08/30 08:37:28;;;;;;;6.82;4.53;;;21.90;99.90;;;;;;5025992;28;20262;-86
2022/08/30 08:39:54;;;;;;;15.60;4.53;;;22.00;99.90;;;;;;5031001;28;20211;-86
2022/08/30 08:42:47;;;;;;;19.90;5.32;;;22.10;99.90;;;;;;5024711;28;20213;-88
2022/08/30 08:45:20;;;;;;;16.65;4.55;;;22.30;99.90;;;;;;5026500;28;20180;-86
2022/08/30 08:48:06;;;;;;;9.80;4.25;;;22.40;99.90;;;;;;5029203;28;20180;-89
2022/08/30 08:50:32;;;;;;;8.32;4.35;;;22.70;99.90;;;;;;5020185;28;20172;-88
2022/08/30 08:55:55;;;;;;;11.98;4.20;;;22.60;99.90;;;;;;5024153;28;20294;-85
2022/08/30 08:58:27;;;;;;;13.98;4.68;;;22.80;99.90;;;;;;5035477;28;20251;-85
2022/08/30 09:00:55;;;;;;;5.10;4.18;;;22.80;99.90;;;;;;5036739;28;20186;-85
2022/08/30 09:03:22;;;;;;;8.80;5.40;;;22.70;99.90;;;;;;5035665;28;20707;-86
2022/08/30 09:05:49;;;;;;;12.23;4.82;;;22.80;99.90;;;;;;5036662;28;20186;-85
2022/08/30 09:08:16;;;;;;;12.60;4.57;;;22.70;99.90;;;;;;5036129;28;20164;-85
2022/08/30 09:10:59;;;;;;;8.57;4.25;;;22.60;99.90;;;;;;5036295;28;20214;-85
2022/08/30 09:13:25;;;;;;;18.77;5.28;;;22.60;99.90;;;;;;5034538;28;20195;-86
2022/08/30 09:15:54;;;;;;;10.70;4.88;;;22.70;99.90;;;;;;5035950;28;20723;-86
2022/08/30 09:18:38;;;;;;;6.97;4.13;;;22.80;99.90;;;;;;5035737;28;20172;-86
2022/08/30 09:21:06;;;;;;;16.65;3.67;;;22.80;99.90;;;;;;5035736;28;20232;-85
2022/08/30 09:23:32;;;;;;;7.05;4.05;;;22.80;99.90;;;;;;5033143;28;20196;-85
2022/08/30 09:26:00;;;;;;;22.88;4.35;;;22.90;99.90;;;;;;5035486;28;20517;-88
2022/08/30 09:28:29;;;;;;;8.20;4.03;;;23.00;99.90;;;;;;5033739;28;20537;-85
2022/08/30 09:31:07;;;;;;;23.30;4.68;;;23.30;99.90;;;;;;5034712;28;20637;-86
2022/08/30 09:33:33;;;;;;;13.95;4.28;;;23.20;99.90;;;;;;5035950;28;20199;-89
2022/08/30 09:36:28;;;;;;;19.65;4.72;;;23.10;99.90;;;;;;5036436;28;20176;-87
2022/08/30 09:39:04;;;;;;;15.70;3.92;;;23.10;99.90;;;;;;5034671;28;20302;-90
2022/08/30 09:41:38;;;;;;;9.57;3.88;;;23.20;99.90;;;;;;5038369;28;20179;-91
2022/08/30 09:44:14;;;;;;;11.63;3.28;;;23.40;99.90;;;;;;5039823;28;20194;-89
2022/08/30 09:46:59;;;;;;;21.33;4.30;;;23.40;99.90;;;;;;5038537;28;20167;-91
2022/08/30 09:49:37;;;;;;;9.55;3.42;;;23.70;99.90;;;;;;5034262;28;20175;-86
2022/08/30 09:52:14;;;;;;;15.05;3.22;;;23.90;99.90;;;;;;5033803;28;20196;-86
2022/08/30 09:54:56;;;;;;;8.40;3.65;;;24.10;99.90;;;;;;5036135;28;20174;-86
2022/08/30 09:57:27;;;;;;;11.82;3.05;;;24.10;99.90;;;;;;5035541;28;20207;-84
2022/08/30 10:00:16;;;;;;;14.65;4.10;;;24.00;99.90;;;;;;5034122;28;20682;-86
2022/08/30 10:03:14;;;;;;;10.65;3.17;;;23.70;99.90;;;;;;5014760;28;20706;-87
2022/08/30 10:06:01;;;;;;;17.52;3.30;;;23.90;99.90;;;;;;5018228;28;20188;-90
2022/08/30 10:08:49;;;;;;;6.85;3.45;;;24.10;99.90;;;;;;5044594;28;20240;-88
2022/08/30 10:11:23;;;;;;;12.23;3.08;;;24.30;99.90;;;;;;5032428;28;20191;-93
2022/08/30 10:14:22;;;;;;;3.35;3.05;;;24.20;99.90;;;;;;5021327;28;20179;-93
2022/08/30 10:17:11;;;;;;;14.90;2.63;;;24.20;99.90;;;;;;5017274;28;20199;-92
2022/08/30 10:20:02;;;;;;;12.68;3.53;;;24.30;99.90;;;;;;5031792;28;20583;-93
2022/08/30 10:22:33;;;;;;;9.00;2.65;;;24.50;99.90;;;;;;5037183;28;20273;-91
2022/08/30 10:25:30;;;;;;;13.48;3.13;;;24.80;99.90;;;;;;5031564;28;20251;-95
2022/08/30 10:28:10;;;;;;;13.18;3.15;;;25.10;99.90;;;;;;5029674;28;20172;-91
2022/08/30 10:30:41;;;;;;;7.55;2.70;;;25.00;99.90;;;;;;5028673;28;20423;-90
2022/08/30 10:33:13;;;;;;;12.02;2.53;;;25.00;99.90;;;;;;5042161;28;20207;-88
2022/08/30 10:35:53;;;;;;;8.10;2.45;;;24.90;99.90;;;;;;5034093;28;20183;-93
2022/08/30 10:38:32;;;;;;;8.55;2.45;;;24.90;99.90;;;;;;5036958;28;20179;-91
2022/08/30 10:41:23;;;;;;;5.28;2.42;;;25.20;99.90;;;;;;5036527;28;20184;-93
2022/08/30 10:44:20;;;;;;;4.30;2.40;;;25.30;99.90;;;;;;5035773;28;20174;-92
2022/08/30 10:47:08;;;;;;;13.25;2.70;;;25.60;99.90;;;;;;5005355;28;20188;-92
2022/08/30 10:49:42;;;;;;;9.60;2.88;;;25.50;99.90;;;;;;5032861;28;20168;-86
2022/08/30 10:52:19;;;;;;;6.30;2.70;;;25.70;99.90;;;;;;5034335;28;20664;-84
2022/08/30 10:54:53;;;;;;;6.60;2.83;;;25.50;99.90;;;;;;5033917;28;20183;-87
2022/08/30 10:57:20;;;;;;;22.25;3.20;;;25.50;99.90;;;;;;5026946;28;20204;-85
2022/08/30 10:59:51;;;;;;;14.90;3.58;;;25.40;99.90;;;;;;5013791;28;20212;-83
2022/08/30 11:02:21;;;;;;;4.15;2.30;;;25.50;99.90;;;;;;5026552;28;20624;-83
2022/08/30 11:05:01;;;;;;;4.88;2.40;;;25.60;99.90;;;;;;5031804;28;20186;-86
2022/08/30 11:07:58;;;;;;;14.30;2.75;;;25.40;99.90;;;;;;5028832;28;20176;-87
2022/08/30 11:10:42;;;;;;;13.32;2.33;;;25.20;99.90;;;;;;5015467;28;20230;-87
2022/08/30 11:13:12;;;;;;;7.35;2.70;;;25.40;99.90;;;;;;5014256;28;20225;-88
2022/08/30 11:15:56;;;;;;;7.40;2.30;;;25.40;99.90;;;;;;5014098;28;20176;-87
2022/08/30 11:18:23;;;;;;;5.80;2.80;;;25.50;99.90;;;;;;5015219;28;20168;-87
2022/08/30 11:20:52;;;;;;;16.45;2.67;;;25.60;99.90;;;;;;5014012;28;20204;-88
2022/08/30 11:23:17;;;;;;;17.77;2.85;;;25.50;99.90;;;;;;5014294;28;20187;-88
2022/08/30 11:25:53;;;;;;;10.43;3.13;;;25.60;99.90;;;;;;5014180;28;20205;-87
2022/08/30 11:28:34;;;;;;;5.28;2.13;;;25.50;99.90;;;;;;5014183;28;20299;-89
2022/08/30 11:31:09;;;;;;;23.08;3.08;;;25.60;99.90;;;;;;5013798;28;20196;-88
2022/08/30 11:33:47;;;;;;;11.95;2.85;;;25.70;99.90;;;;;;5013910;28;20199;-87
2022/08/30 11:36:28;;;;;;;5.72;2.20;;;25.80;99.90;;;;;;5013789;28;20172;-87
2022/08/30 11:38:53;;;;;;;10.80;2.30;;;26.10;99.90;;;;;;5013466;28;20226;-88
2022/08/30 11:41:43;;;;;;;11.32;2.60;;;26.40;99.90;;;;;;5013331;28;20627;-87
2022/08/30 11:44:20;;;;;;;5.20;3.03;;;26.40;99.90;;;;;;5013678;28;20168;-87
2022/08/30 11:46:48;;;;;;;6.82;2.85;;;26.30;99.90;;;;;;5013368;28;20199;-87
2022/08/30 11:49:32;;;;;;;4.38;2.30;;;26.10;99.90;;;;;;5013323;28;20173;-87
2022/08/30 11:52:14;;;;;;;7.30;2.30;;;26.10;99.90;;;;;;5012928;28;20559;-88
2022/08/30 11:54:40;;;;;;;8.30;2.63;;;26.00;99.90;;;;;;5013218;28;20204;-87
2022/08/30 11:57:20;;;;;;;12.73;3.30;;;25.70;99.90;;;;;;5013168;28;20212;-87
2022/08/30 12:00:08;;;;;;;8.00;2.40;;;25.90;99.90;;;;;;5013218;28;20208;-87
2022/08/30 12:02:53;;;;;;;5.00;2.03;;;26.00;99.90;;;;;;5013143;28;20230;-87
2022/08/30 12:05:45;;;;;;;2.80;2.20;;;26.10;99.90;;;;;;5014339;28;20169;-87
2022/08/30 12:08:33;;;;;;;8.60;2.22;;;26.00;99.90;;;;;;5012561;28;20215;-87
2022/08/30 12:11:13;;;;;;;8.32;2.50;;;26.00;99.90;;;;;;5012783;28;20175;-87
2022/08/30 12:13:41;;;;;;;10.50;2.10;;;26.10;99.90;;;;;;5012760;28;20196;-87
2022/08/30 12:16:13;;;;;;;5.03;2.17;;;26.10;99.90;;;;;;5012930;28;20179;-87
2022/08/30 12:18:59;;;;;;;13.73;3.17;;;26.20;99.90;;;;;;5013602;28;20234;-87
2022/08/30 12:21:32;;;;;;;9.23;3.03;;;26.20;99.90;;;;;;5012642;28;20183;-87
2022/08/30 12:24:00;;;;;;;17.42;2.90;;;26.20;99.90;;;;;;5012736;28;20196;-87
2022/08/30 12:26:25;;;;;;;7.63;2.85;;;26.30;99.90;;;;;;5013101;28;20196;-87
2022/08/30 12:29:06;;;;;;;12.60;2.30;;;26.50;99.90;;;;;;5012093;28;20180;-87
2022/08/30 12:31:32;;;;;;;7.68;2.25;;;26.80;99.90;;;;;;5011917;28;20211;-87
2022/08/30 12:34:00;;;;;;;5.72;2.20;;;26.90;99.90;;;;;;5012829;28;20164;-87
2022/08/30 12:36:48;;;;;;;2.65;1.90;;;27.10;99.90;;;;;;5013116;28;20171;-86
2022/08/30 12:39:23;;;;;;;4.03;1.88;;;27.20;99.90;;;;;;5014180;28;20291;-82
2022/08/30 12:41:49;;;;;;;25.90;2.58;;;27.20;99.90;;;;;;5012501;28;20224;-83
2022/08/30 12:44:21;;;;;;;6.35;2.10;;;27.20;99.90;;;;;;5011880;28;20188;-83
2022/08/30 12:46:51;;;;;;;7.20;2.78;;;27.20;99.90;;;;;;5013080;28;20176;-83
2022/08/30 12:49:19;;;;;;;12.40;2.83;;;27.10;99.90;;;;;;5013210;28;20704;-86
2022/08/30 12:51:45;;;;;;;13.68;2.38;;;26.90;99.90;;;;;;5011574;28;20189;-84
2022/08/30 12:54:21;;;;;;;13.40;2.40;;;26.60;99.90;;;;;;5012959;28;20193;-86
2022/08/30 12:56:55;;;;;;;6.88;2.10;;;26.60;99.90;;;;;;5012981;28;20168;-83
2022/08/30 12:59:50;;;;;;;9.90;2.10;;;26.80;99.90;;;;;;5011654;28;20212;-83